Time;durP1;ratioP1;P1;durP2;ratioP2;P2;SDS_P1;SDS_P2;PMS_P1;PMS_P2;Temp;Humidity;BMP_temperature;BMP_pressure;BME280_temperature;BME280_humidity;BME280_pressure;Samples;Min_cycle;Max_cycle;Signal;HPM_P1;HPM_P2
2021/06/18 00:00:00;;;;;;;4.03;1.92;;;;;;;21.15;56.91;100987.09;1697291;82;21097;-57
2021/06/18 00:02:27;;;;;;;4.17;1.90;;;;;;;21.15;56.20;100979.06;1677705;82;21115;-57
2021/06/18 00:04:54;;;;;;;5.20;2.00;;;;;;;21.15;56.18;100977.73;1715952;81;21181;-58
2021/06/18 00:07:20;;;;;;;5.90;2.40;;;;;;;21.14;56.13;100983.56;1703559;82;21148;-57
2021/06/18 00:09:47;;;;;;;4.33;1.82;;;;;;;21.12;56.05;100980.75;1702792;82;21156;-57
2021/06/18 00:12:13;;;;;;;4.10;1.67;;;;;;;21.10;55.68;100973.41;1704046;82;21050;-57
2021/06/18 00:14:41;;;;;;;6.95;1.82;;;;;;;21.07;55.77;100974.59;1706053;82;21045;-58
2021/06/18 00:17:07;;;;;;;6.30;1.92;;;;;;;21.05;55.92;100971.78;1702924;82;21173;-57
2021/06/18 00:19:35;;;;;;;6.33;2.22;;;;;;;21.01;55.88;100968.59;1721177;81;21138;-57
2021/06/18 00:22:02;;;;;;;4.10;1.98;;;;;;;20.95;56.07;100966.14;1720617;81;21032;-57
2021/06/18 00:24:28;;;;;;;6.30;1.80;;;;;;;20.92;56.47;100971.83;1703537;82;21155;-58
2021/06/18 00:26:56;;;;;;;6.22;2.00;;;;;;;20.88;56.58;100969.68;1723008;81;21085;-58
2021/06/18 00:29:22;;;;;;;4.12;1.70;;;;;;;20.83;56.41;100967.56;1723593;81;21122;-57
2021/06/18 00:31:48;;;;;;;4.87;2.00;;;;;;;20.77;56.57;100958.38;1716240;81;21148;-57
2021/06/18 00:34:15;;;;;;;3.95;1.72;;;;;;;20.73;56.58;100966.95;1715922;81;21100;-57
2021/06/18 00:36:41;;;;;;;9.40;1.72;;;;;;;20.66;56.59;100964.14;1721626;81;21075;-58
2021/06/18 00:39:08;;;;;;;4.62;1.70;;;;;;;20.63;56.47;100967.16;1717940;81;21110;-57
2021/06/18 00:41:34;;;;;;;4.85;2.15;;;;;;;20.59;56.13;100963.98;1696695;82;21151;-57
2021/06/18 00:44:00;;;;;;;3.77;1.57;;;;;;;20.54;56.55;100963.66;1698621;82;21262;-57
2021/06/18 00:46:27;;;;;;;6.50;2.22;;;;;;;20.49;56.14;100959.31;1698654;82;21116;-58
2021/06/18 00:48:55;;;;;;;6.97;1.80;;;;;;;20.44;56.11;100957.67;1700218;82;21152;-57
2021/06/18 00:51:24;;;;;;;5.25;2.00;;;;;;;20.38;56.11;100955.71;1715719;81;21086;-57
2021/06/18 00:53:53;;;;;;;4.65;1.95;;;;;;;20.33;56.20;100961.56;1720890;81;21011;-57
2021/06/18 00:56:19;;;;;;;7.97;1.80;;;;;;;20.29;56.25;100966.09;1720351;81;21588;-57
2021/06/18 00:58:46;;;;;;;6.00;1.72;;;;;;;20.25;56.17;100963.44;1715831;81;21745;-58
2021/06/18 01:01:13;;;;;;;5.42;2.10;;;;;;;20.21;56.43;100966.45;1711628;80;21054;-57
2021/06/18 01:03:40;;;;;;;4.45;1.77;;;;;;;20.18;56.53;100960.62;1745920;80;21380;-61
2021/06/18 01:06:07;;;;;;;5.95;1.90;;;;;;;20.15;56.69;100964.45;1745847;80;22020;-57
2021/06/18 01:08:46;;;;;;;5.37;2.10;;;;;;;20.13;56.87;100959.80;1719247;81;21130;-57
2021/06/18 01:11:42;;;;;;;4.65;1.95;;;;;;;20.12;56.85;100959.45;1702060;82;21443;-58
2021/06/18 01:14:34;;;;;;;;;;;;;;;20.08;57.13;100949.30;1702262;82;21039;-58
2021/06/18 01:17:24;;;;;;;7.53;2.22;;;;;;;20.07;57.20;100956.97;1727978;81;20451;-56
2021/06/18 01:20:15;;;;;;;4.53;1.87;;;;;;;20.08;57.50;100957.31;1702525;81;21039;-58
2021/06/18 01:22:42;;;;;;;4.80;1.77;;;;;;;20.09;57.67;100961.16;1726559;81;21157;-57
2021/06/18 01:25:46;;;;;;;5.17;2.00;;;;;;;20.06;57.68;100957.48;1714759;81;21376;-57
2021/06/18 01:28:35;;;;;;;8.30;2.30;;;;;;;20.03;57.94;100958.64;1745552;80;21077;-56
2021/06/18 01:31:01;;;;;;;5.75;1.80;;;;;;;19.97;57.73;100959.34;1745352;80;21062;-55
2021/06/18 01:33:27;;;;;;;5.00;2.15;;;;;;;19.91;58.10;100956.53;1706201;82;21071;-57
2021/06/18 01:35:56;;;;;;;6.15;2.30;;;;;;;19.85;58.02;100954.02;1678156;82;21141;-57
2021/06/18 01:38:23;;;;;;;4.95;2.00;;;;;;;19.81;58.36;100957.53;1708374;82;21569;-57
2021/06/18 01:40:54;;;;;;;6.30;1.98;;;;;;;19.77;58.33;100958.88;1691045;81;21097;-58
2021/06/18 01:43:21;;;;;;;5.28;2.42;;;;;;;19.74;58.27;100963.19;1725615;81;21832;-57
2021/06/18 01:45:47;;;;;;;4.00;1.92;;;;;;;19.70;58.26;100955.67;1725509;81;21065;-57
2021/06/18 01:48:14;;;;;;;4.45;2.08;;;;;;;19.66;58.22;100955.19;1691885;82;21113;-57
2021/06/18 01:50:40;;;;;;;4.12;1.80;;;;;;;19.66;58.18;100947.17;1678257;82;21568;-57
2021/06/18 02:06:26;;;;;;;4.47;1.95;;;;;;;21.02;53.89;100944.86;1813259;76;22717;-58
2021/06/18 02:08:56;;;;;;;3.50;1.60;;;;;;;21.10;52.97;100952.02;1825203;77;20979;-58
2021/06/18 02:11:23;;;;;;;5.25;1.95;;;;;;;20.96;53.51;100951.77;1824851;77;21763;-57
2021/06/18 02:13:50;;;;;;;5.95;2.15;;;;;;;20.83;53.77;100947.50;1826925;77;21522;-59
2021/06/18 02:16:17;;;;;;;4.10;1.95;;;;;;;20.72;53.89;100941.20;1815020;77;21110;-57
2021/06/18 02:18:43;;;;;;;3.92;1.85;;;;;;;20.60;54.01;100944.75;1787856;77;21071;-57
2021/06/18 02:21:10;;;;;;;4.35;1.67;;;;;;;20.51;54.49;100949.30;1787057;77;21075;-57
2021/06/18 02:23:36;;;;;;;3.17;1.52;;;;;;;20.48;54.69;100953.66;1825109;77;21057;-57
2021/06/18 02:26:05;;;;;;;3.75;1.55;;;;;;;20.41;55.30;100956.19;1703063;78;21594;-56
2021/06/18 02:28:31;;;;;;;5.45;1.75;;;;;;;20.33;54.96;100954.06;1779487;78;21486;-56
2021/06/18 02:30:58;;;;;;;3.62;1.77;;;;;;;20.22;54.66;100960.59;1759619;80;21550;-57
2021/06/18 02:33:24;;;;;;;3.90;1.45;;;;;;;20.12;54.67;100959.45;1757686;80;21171;-57
2021/06/18 02:35:50;;;;;;;5.22;1.67;;;;;;;20.03;54.80;100961.83;1770702;79;21118;-56
2021/06/18 02:38:17;;;;;;;3.83;1.67;;;;;;;19.96;55.05;100959.00;1766067;79;21069;-57
2021/06/18 02:40:44;;;;;;;4.12;1.77;;;;;;;19.90;55.06;100966.86;1778680;78;21082;-57
2021/06/18 02:43:11;;;;;;;4.53;1.95;;;;;;;19.84;55.39;100967.05;1777946;78;21081;-57
2021/06/18 02:45:38;;;;;;;3.22;1.40;;;;;;;19.80;55.61;100967.89;1780705;78;21592;-56
2021/06/18 02:48:31;;;;;;;3.75;1.62;;;;;;;19.76;55.71;100973.73;1781680;78;21121;-57
2021/06/18 02:51:16;;;;;;;4.42;1.77;;;;;;;19.74;55.50;100972.53;1782672;78;21084;-57
2021/06/18 02:53:52;;;;;;;7.78;1.85;;;;;;;19.67;55.91;100967.03;1769136;78;21981;-58
2021/06/18 02:56:22;;;;;;;;;;;;;;;19.62;55.92;100967.22;1737423;79;21139;-57
2021/06/18 02:59:09;;;;;;;3.70;1.72;;;;;;;19.60;56.24;100966.52;1768719;79;20512;-57
2021/06/18 03:01:38;;;;;;;4.42;1.87;;;;;;;19.53;56.22;100965.53;1766848;79;21881;-56
2021/06/18 03:04:06;;;;;;;5.28;2.10;;;;;;;19.51;56.51;100967.03;1766560;79;21564;-56
2021/06/18 03:06:34;;;;;;;4.45;1.40;;;;;;;19.51;56.25;100969.70;1789154;78;21108;-57
2021/06/18 03:09:04;;;;;;;6.78;1.65;;;;;;;19.49;56.60;100965.86;1791397;78;21019;-57
2021/06/18 03:11:38;;;;;;;6.78;1.80;;;;;;;19.49;56.56;100970.38;1791697;78;21061;-55
2021/06/18 03:14:09;;;;;;;3.60;1.40;;;;;;;19.49;56.49;100975.72;1778285;79;21096;-57
2021/06/18 03:16:35;;;;;;;4.22;1.40;;;;;;;19.49;56.60;100981.88;1778735;80;21101;-56
2021/06/18 03:19:05;;;;;;;4.58;1.80;;;;;;;19.51;57.08;100977.71;1769930;79;21115;-57
2021/06/18 03:21:35;;;;;;;4.78;1.67;;;;;;;19.59;56.74;100980.38;1779261;79;21103;-58
2021/06/18 03:24:04;;;;;;;5.55;1.80;;;;;;;19.71;56.42;100981.38;1774288;79;21190;-55
2021/06/18 03:26:31;;;;;;;4.30;1.70;;;;;;;19.75;56.01;100982.22;1774611;79;21100;-56
2021/06/18 03:28:58;;;;;;;3.77;1.55;;;;;;;19.76;56.25;100986.58;1778029;79;21044;-57
2021/06/18 03:31:26;;;;;;;3.72;1.47;;;;;;;19.76;55.74;100977.73;1776497;79;21048;-57
2021/06/18 03:33:53;;;;;;;4.30;1.50;;;;;;;19.76;55.35;100975.07;1778103;79;21650;-58
2021/06/18 03:36:26;;;;;;;6.30;1.20;;;;;;;19.75;55.85;100979.55;1777348;79;21116;-56
2021/06/18 03:38:54;;;;;;;5.47;1.87;;;;;;;19.75;55.61;100975.55;1772810;79;21133;-56
2021/06/18 03:41:21;;;;;;;4.83;1.70;;;;;;;19.75;55.85;100982.73;1755615;80;21129;-56
2021/06/18 03:43:48;;;;;;;4.60;1.50;;;;;;;19.74;56.05;100983.22;1739055;78;21133;-56
2021/06/18 03:46:15;;;;;;;5.05;1.42;;;;;;;19.75;55.73;100981.40;1790088;79;21084;-59
2021/06/18 03:48:43;;;;;;;7.20;1.72;;;;;;;19.74;55.46;100981.88;1788743;79;21752;-57
2021/06/18 03:51:10;;;;;;;3.52;1.30;;;;;;;19.75;55.73;100987.56;1750195;79;21179;-57
2021/06/18 03:53:37;;;;;;;6.05;1.67;;;;;;;19.74;56.05;100988.55;1772479;79;21191;-58
2021/06/18 03:56:05;;;;;;;5.15;1.45;;;;;;;19.76;55.81;100983.08;1769356;79;21390;-57
2021/06/18 03:58:33;;;;;;;3.60;1.57;;;;;;;19.80;55.50;100977.72;1745664;80;21080;-58
2021/06/18 04:01:00;;;;;;;4.75;1.80;;;;;;;19.81;55.88;100982.07;1778089;79;21088;-56
2021/06/18 04:03:27;;;;;;;4.50;1.40;;;;;;;19.82;56.10;100979.23;1769152;79;21208;-56
2021/06/18 04:06:05;;;;;;;5.15;1.77;;;;;;;19.85;55.73;100977.56;1717791;81;21089;-55
2021/06/18 04:08:34;;;;;;;4.62;1.75;;;;;;;19.88;56.01;100984.39;1744491;80;21096;-57
2021/06/18 04:11:00;;;;;;;3.90;1.40;;;;;;;19.91;56.12;100987.23;1749844;80;20962;-56
2021/06/18 04:13:29;;;;;;;3.12;1.40;;;;;;;19.95;55.96;100980.54;1750596;80;21540;-57
2021/06/18 04:15:55;;;;;;;3.33;1.42;;;;;;;19.97;55.64;100985.20;1752152;80;21103;-57
2021/06/18 04:18:23;;;;;;;4.25;1.50;;;;;;;19.99;55.86;100989.90;1753521;80;20919;-57
2021/06/18 04:20:50;;;;;;;4.45;1.87;;;;;;;20.02;55.77;100998.88;1753290;80;21966;-56
2021/06/18 04:23:19;;;;;;;4.20;1.17;;;;;;;20.03;55.86;101009.91;1749228;80;20938;-59
2021/06/18 04:25:45;;;;;;;4.22;1.42;;;;;;;20.08;55.82;101012.08;1752300;80;20985;-57
2021/06/18 04:28:11;;;;;;;5.22;1.60;;;;;;;20.11;55.68;101008.56;1751114;80;20996;-57
2021/06/18 04:30:38;;;;;;;7.83;1.80;;;;;;;20.16;55.81;101009.39;1749611;80;21086;-57
2021/06/18 04:33:04;;;;;;;4.58;1.70;;;;;;;20.18;55.85;101006.87;1744639;80;21575;-56
2021/06/18 04:35:30;;;;;;;3.40;1.40;;;;;;;20.22;55.36;101006.02;1718787;80;21556;-58
2021/06/18 04:37:59;;;;;;;4.15;1.95;;;;;;;20.23;55.56;101006.36;1749157;80;21121;-56
2021/06/18 04:40:25;;;;;;;6.15;1.80;;;;;;;20.27;55.69;101006.85;1720059;81;21134;-57
2021/06/18 04:42:51;;;;;;;3.52;1.60;;;;;;;20.31;55.81;101010.36;1750059;80;21647;-57
2021/06/18 04:45:18;;;;;;;4.37;1.72;;;;;;;20.37;55.77;101008.31;1748785;80;21097;-57
2021/06/18 04:47:45;;;;;;;4.28;1.90;;;;;;;20.42;55.71;100998.45;1745807;80;21161;-56
2021/06/18 04:50:11;;;;;;;4.33;1.67;;;;;;;20.46;54.81;100994.44;1716784;80;21563;-57
2021/06/18 04:52:42;;;;;;;6.83;2.27;;;;;;;20.48;54.79;101001.78;1750664;80;21542;-58
2021/06/18 04:55:14;;;;;;;4.60;1.30;;;;;;;20.50;54.95;101001.61;1722238;80;21073;-55
2021/06/18 04:57:38;;;;;;;4.55;1.70;;;;;;;20.53;55.06;101004.77;1747852;80;21077;-58
2021/06/18 05:00:07;;;;;;;4.55;1.77;;;;;;;20.58;55.21;101009.59;1715999;80;21501;-55
2021/06/18 05:02:34;;;;;;;5.95;1.80;;;;;;;20.63;55.06;101006.41;1747079;80;21148;-53
2021/06/18 05:05:00;;;;;;;5.47;1.70;;;;;;;20.70;55.21;101010.91;1749923;80;21091;-57
2021/06/18 05:07:26;;;;;;;4.45;1.87;;;;;;;20.76;55.02;101006.69;1775683;79;21092;-56
2021/06/18 05:09:53;;;;;;;5.62;1.70;;;;;;;20.81;54.39;101003.50;1777418;78;21072;-54
2021/06/18 05:12:22;;;;;;;4.95;1.62;;;;;;;20.86;55.15;100999.28;1744622;79;21787;-53
2021/06/18 05:14:49;;;;;;;6.10;1.65;;;;;;;20.93;55.52;100997.59;1777111;79;21591;-54
2021/06/18 05:17:16;;;;;;;5.08;1.95;;;;;;;21.04;54.97;100999.02;1767444;79;21781;-55
2021/06/18 05:19:42;;;;;;;5.65;1.92;;;;;;;21.13;54.09;101007.82;1775540;79;21108;-55
2021/06/18 05:22:09;;;;;;;6.03;1.45;;;;;;;21.18;53.60;100992.58;1777024;79;21068;-53
2021/06/18 05:24:35;;;;;;;4.30;2.02;;;;;;;21.23;53.91;100991.05;1778913;78;21129;-60
2021/06/18 05:27:03;;;;;;;5.35;2.00;;;;;;;21.30;53.18;100993.81;1758813;80;20999;-58
2021/06/18 05:29:29;;;;;;;4.70;1.67;;;;;;;21.37;53.01;100991.27;1756027;78;21358;-58
2021/06/18 05:31:56;;;;;;;4.87;1.60;;;;;;;21.41;53.61;100992.59;1753779;80;21192;-58
2021/06/18 05:34:22;;;;;;;6.12;1.85;;;;;;;21.48;53.35;100988.20;1765147;79;21109;-57
2021/06/18 05:36:48;;;;;;;3.50;1.45;;;;;;;21.56;53.34;100985.98;1763225;79;21400;-58
2021/06/18 05:39:15;;;;;;;7.12;1.70;;;;;;;21.67;53.35;100985.03;1766226;79;21085;-57
2021/06/18 05:41:42;;;;;;;5.50;2.02;;;;;;;21.75;52.73;100985.97;1753068;80;21962;-58
2021/06/18 05:44:08;;;;;;;3.87;1.55;;;;;;;21.81;52.76;100993.28;1786934;78;21058;-57
2021/06/18 05:46:35;;;;;;;4.45;1.42;;;;;;;21.85;52.80;100984.68;1774327;79;22364;-59
2021/06/18 05:49:02;;;;;;;4.87;1.75;;;;;;;21.94;53.05;100987.28;1774628;78;21128;-58
2021/06/18 05:51:28;;;;;;;5.25;1.67;;;;;;;22.05;53.05;100989.00;1777084;79;21062;-59
2021/06/18 05:53:55;;;;;;;4.97;1.77;;;;;;;22.15;52.66;100982.55;1775294;78;21106;-59
2021/06/18 05:56:21;;;;;;;3.85;1.60;;;;;;;22.20;51.47;100977.47;1751870;80;21095;-57
2021/06/18 05:58:49;;;;;;;5.35;2.10;;;;;;;22.21;52.07;100981.31;1775012;78;21032;-58
2021/06/18 06:01:17;;;;;;;4.55;1.62;;;;;;;22.24;52.13;100972.91;1776460;78;21405;-65
2021/06/18 06:03:45;;;;;;;6.60;1.60;;;;;;;22.30;51.78;100971.87;1739987;79;21609;-59
2021/06/18 06:06:11;;;;;;;7.05;1.42;;;;;;;22.34;51.46;100976.67;1777390;78;21112;-58
2021/06/18 06:08:37;;;;;;;4.75;1.55;;;;;;;22.31;51.49;100970.34;1781698;78;21537;-58
2021/06/18 06:11:04;;;;;;;4.17;1.55;;;;;;;22.32;51.31;100970.64;1786690;78;21064;-59
2021/06/18 06:13:31;;;;;;;5.50;1.95;;;;;;;22.32;51.89;100969.30;1788343;78;21105;-58
2021/06/18 06:15:58;;;;;;;4.30;1.85;;;;;;;22.37;51.75;100964.22;1785765;78;21110;-56
2021/06/18 06:18:26;;;;;;;4.80;1.60;;;;;;;22.42;51.66;100966.34;1785877;78;22951;-55
2021/06/18 06:20:53;;;;;;;3.12;1.37;;;;;;;22.48;51.99;100964.75;1783934;78;21352;-57
2021/06/18 06:23:19;;;;;;;4.95;1.85;;;;;;;22.52;51.93;100962.86;1786527;78;21109;-56
2021/06/18 06:25:46;;;;;;;4.00;1.70;;;;;;;22.58;51.66;100969.34;1790824;78;21115;-56
2021/06/18 06:28:12;;;;;;;3.62;1.60;;;;;;;22.63;51.86;100962.91;1784822;79;21109;-58
2021/06/18 06:30:40;;;;;;;4.80;2.20;;;;;;;22.72;51.74;100964.96;1763469;79;21143;-59
2021/06/18 06:33:07;;;;;;;3.92;1.62;;;;;;;22.74;51.16;100959.71;1731880;79;21093;-57
2021/06/18 06:35:34;;;;;;;6.33;1.95;;;;;;;22.75;51.46;100972.12;1752684;78;21145;-57
2021/06/18 06:38:00;;;;;;;4.47;1.80;;;;;;;22.81;51.66;100975.89;1762651;79;21303;-57
2021/06/18 06:40:26;;;;;;;4.33;1.55;;;;;;;22.85;51.43;100976.33;1787877;78;21132;-57
2021/06/18 06:42:53;;;;;;;6.42;3.55;;;;;;;22.90;50.99;100975.28;1752082;79;22037;-57
2021/06/18 06:45:21;;;;;;;6.90;2.33;;;;;;;22.95;51.07;100968.31;1785372;78;21121;-57
2021/06/18 06:47:48;;;;;;;5.03;1.90;;;;;;;23.00;51.05;100966.41;1770546;79;21117;-56
2021/06/18 06:50:14;;;;;;;4.30;1.67;;;;;;;23.04;50.21;100959.63;1772054;79;21580;-56
2021/06/18 06:52:42;;;;;;;12.53;5.85;;;;;;;23.09;50.88;100966.63;1773049;79;21042;-55
2021/06/18 06:55:10;;;;;;;24.72;16.45;;;;;;;23.16;51.02;100980.11;1771840;79;22570;-57
2021/06/18 06:57:37;;;;;;;39.92;25.90;;;;;;;23.24;51.22;100969.77;1771268;79;21069;-56
2021/06/18 07:00:06;;;;;;;20.57;12.40;;;;;;;23.33;51.51;100976.66;1740795;79;21554;-56
2021/06/18 07:02:32;;;;;;;30.65;21.33;;;;;;;23.41;50.76;100969.81;1741604;80;21035;-57
2021/06/18 07:04:58;;;;;;;19.35;11.85;;;;;;;23.48;50.11;100964.50;1776636;79;21073;-57
2021/06/18 07:07:24;;;;;;;9.23;3.87;;;;;;;23.52;49.98;100959.89;1769945;79;21559;-57
2021/06/18 07:09:51;;;;;;;9.60;2.00;;;;;;;23.57;50.07;100948.58;1773519;79;21053;-62
2021/06/18 07:12:17;;;;;;;5.22;2.50;;;;;;;23.63;49.93;100940.23;1757654;78;21112;-55
2021/06/18 07:14:44;;;;;;;6.42;2.40;;;;;;;23.68;49.51;100951.23;1764262;80;21388;-54
2021/06/18 07:17:10;;;;;;;5.50;3.00;;;;;;;23.71;49.84;100956.22;1780379;78;21752;-56
2021/06/18 07:19:37;;;;;;;7.60;3.47;;;;;;;23.77;49.88;100955.94;1756252;80;21116;-56
2021/06/18 07:22:04;;;;;;;7.97;3.40;;;;;;;23.82;49.67;100961.58;1781299;78;21589;-56
2021/06/18 07:24:30;;;;;;;5.00;2.22;;;;;;;23.89;50.02;100962.48;1753102;78;21058;-55
2021/06/18 07:26:57;;;;;;;5.78;2.02;;;;;;;23.95;49.20;100964.36;1779865;78;21062;-55
2021/06/18 07:29:26;;;;;;;6.25;2.15;;;;;;;24.02;49.29;100971.94;1756697;78;21022;-54
2021/06/18 07:31:54;;;;;;;5.60;2.35;;;;;;;24.07;48.93;100974.89;1782006;78;21124;-57
2021/06/18 07:34:20;;;;;;;6.05;2.62;;;;;;;24.14;49.72;100965.52;1784179;78;21139;-55
2021/06/18 07:36:46;;;;;;;6.40;1.82;;;;;;;24.19;48.94;100963.56;1780837;78;21131;-55
2021/06/18 07:39:14;;;;;;;6.62;2.35;;;;;;;24.23;48.48;100968.87;1784124;78;21569;-54
2021/06/18 07:41:41;;;;;;;7.00;3.20;;;;;;;24.26;49.12;100965.27;1782526;78;21117;-56
2021/06/18 07:44:08;;;;;;;5.83;2.25;;;;;;;24.32;49.54;100965.50;1755692;78;21136;-55
2021/06/18 07:46:34;;;;;;;5.30;1.92;;;;;;;24.39;49.11;100969.05;1781414;78;21125;-57
2021/06/18 07:49:01;;;;;;;4.85;2.20;;;;;;;24.46;49.09;100967.20;1785771;78;21506;-54
2021/06/18 07:51:27;;;;;;;6.58;2.25;;;;;;;24.55;49.11;100974.64;1783555;78;21158;-55
2021/06/18 07:53:54;;;;;;;4.58;1.85;;;;;;;24.63;48.65;100979.33;1785243;79;21112;-56
2021/06/18 07:56:30;;;;;;;4.78;1.80;;;;;;;24.72;49.43;100983.19;1783882;79;21132;-55
2021/06/18 07:58:52;;;;;;;6.15;2.33;;;;;;;24.83;48.94;100983.44;1781313;78;21130;-56
2021/06/18 08:01:19;;;;;;;5.80;2.25;;;;;;;25.00;48.86;100987.11;1783377;78;21012;-55
2021/06/18 08:03:46;;;;;;;5.47;1.98;;;;;;;25.10;48.43;100992.92;1781848;78;21108;-55
2021/06/18 08:06:12;;;;;;;5.30;2.45;;;;;;;25.16;47.87;100992.61;1780887;78;21067;-56
2021/06/18 08:08:40;;;;;;;6.22;2.37;;;;;;;25.16;48.37;100991.27;1777526;79;21243;-56
2021/06/18 08:11:07;;;;;;;4.45;1.65;;;;;;;25.20;48.09;100992.50;1755519;80;21017;-55
2021/06/18 08:13:33;;;;;;;5.90;1.95;;;;;;;25.25;48.10;100993.24;1755896;80;21057;-55
2021/06/18 08:16:00;;;;;;;5.30;1.95;;;;;;;25.27;48.33;100985.81;1753715;80;21474;-55
2021/06/18 08:18:27;;;;;;;6.12;1.72;;;;;;;25.29;48.32;100993.19;1754929;80;21117;-55
2021/06/18 08:20:53;;;;;;;6.78;1.90;;;;;;;25.34;48.35;100988.84;1756120;80;21129;-56
2021/06/18 08:23:20;;;;;;;4.40;1.90;;;;;;;25.40;48.76;100984.48;1723190;80;21117;-56
2021/06/18 08:25:49;;;;;;;5.03;1.85;;;;;;;25.45;47.57;100966.36;1749365;79;21529;-56
2021/06/18 08:28:15;;;;;;;5.60;1.70;;;;;;;25.46;47.48;100978.80;1748582;78;21606;-55
2021/06/18 08:30:41;;;;;;;4.92;1.95;;;;;;;25.49;48.27;100975.70;1782578;78;21645;-57
2021/06/18 08:33:09;;;;;;;7.78;2.10;;;;;;;25.55;48.49;100973.50;1779436;78;21160;-58
2021/06/18 08:35:36;;;;;;;5.42;2.00;;;;;;;25.61;48.79;100975.38;1777631;79;21049;-56
2021/06/18 08:38:02;;;;;;;3.80;1.52;;;;;;;25.71;48.44;100972.27;1778182;79;21045;-56
2021/06/18 08:40:30;;;;;;;3.42;1.60;;;;;;;25.77;47.64;100970.91;1775129;79;21200;-56
2021/06/18 08:42:56;;;;;;;6.37;2.33;;;;;;;25.79;47.19;100966.66;1785343;78;22433;-55
2021/06/18 08:45:23;;;;;;;6.40;1.90;;;;;;;25.75;47.19;100971.62;1779135;78;21089;-55
2021/06/18 08:47:51;;;;;;;3.60;1.52;;;;;;;25.78;47.66;100972.55;1781230;78;21121;-55
2021/06/18 08:50:24;;;;;;;6.55;2.80;;;;;;;25.86;48.06;100959.92;1780557;78;21069;-55
2021/06/18 08:52:55;;;;;;;4.08;2.35;;;;;;;25.92;47.97;100961.75;1778342;78;21042;-57
2021/06/18 08:55:22;;;;;;;6.75;2.08;;;;;;;25.93;47.45;100958.84;1750717;79;21124;-56
2021/06/18 08:57:50;;;;;;;5.35;2.50;;;;;;;25.96;47.66;100960.34;1753669;78;21109;-57
2021/06/18 09:00:23;;;;;;;3.80;1.75;;;;;;;26.01;47.70;100961.88;1776775;79;21064;-57
2021/06/18 09:02:51;;;;;;;5.03;1.92;;;;;;;26.10;47.82;100961.95;1776822;79;21587;-56
2021/06/18 09:05:17;;;;;;;3.98;2.02;;;;;;;26.19;47.21;100964.41;1768955;79;21478;-56
2021/06/18 09:07:56;;;;;;;4.50;2.12;;;;;;;26.25;47.25;100967.09;1766943;79;21018;-57
2021/06/18 09:10:38;;;;;;;4.60;2.27;;;;;;;26.31;47.47;100973.53;1778146;79;21082;-57
2021/06/18 09:13:21;;;;;;;5.33;2.42;;;;;;;26.39;47.44;100975.95;1766023;79;22635;-57
2021/06/18 09:15:53;;;;;;;5.92;2.50;;;;;;;26.53;47.60;100962.41;1780021;79;21589;-59
2021/06/18 09:18:37;;;;;;;5.35;2.05;;;;;;;26.69;46.88;100972.22;1777679;79;21092;-57
2021/06/18 09:21:20;;;;;;;5.33;2.20;;;;;;;26.79;47.35;100972.30;1775936;78;21065;-57
2021/06/18 09:23:54;;;;;;;7.03;2.20;;;;;;;26.85;47.12;100972.27;1773818;78;21122;-58
2021/06/18 09:26:28;;;;;;;7.28;2.22;;;;;;;26.87;46.99;100965.30;1774840;79;21125;-57
2021/06/18 09:29:11;;;;;;;5.33;1.92;;;;;;;26.88;46.71;100961.03;1773054;78;21600;-57
2021/06/18 09:31:48;;;;;;;6.35;2.25;;;;;;;26.88;47.01;100962.38;1775467;78;21066;-58
2021/06/18 09:34:31;;;;;;;3.95;1.82;;;;;;;26.93;47.00;100973.86;1733665;79;21065;-58
2021/06/18 09:37:38;;;;;;;4.40;2.00;;;;;;;26.98;47.06;100962.41;1765252;79;21209;-57
2021/06/18 09:40:16;;;;;;;6.80;2.77;;;;;;;27.07;47.30;100957.07;1735280;79;21072;-57
2021/06/18 09:43:09;;;;;;;3.98;1.98;;;;;;;27.21;47.29;100957.80;1755611;79;21081;-58
2021/06/18 09:45:37;;;;;;;6.28;1.80;;;;;;;27.32;47.23;100956.28;1733002;79;21046;-57
2021/06/18 09:48:14;;;;;;;6.87;2.30;;;;;;;27.44;46.95;100949.13;1793042;78;21035;-57
2021/06/18 09:50:48;;;;;;;4.15;1.92;;;;;;;27.55;46.61;100947.03;1758227;80;22442;-57
2021/06/18 09:53:22;;;;;;;7.40;2.30;;;;;;;27.70;45.61;100944.52;1779634;78;21674;-57
2021/06/18 09:56:08;;;;;;;6.42;2.20;;;;;;;27.76;45.67;100942.28;1726950;80;21526;-57
2021/06/18 09:58:41;;;;;;;5.72;1.80;;;;;;;27.79;45.14;100934.55;1771650;79;21115;-57
2021/06/18 10:01:25;;;;;;;5.70;2.55;;;;;;;27.82;45.11;100934.61;1759832;79;21064;-56
2021/06/18 10:04:06;;;;;;;3.90;1.72;;;;;;;27.83;45.37;100936.81;1771248;80;21187;-57
2021/06/18 10:06:37;;;;;;;5.53;2.35;;;;;;;27.82;44.55;100931.09;1769980;80;21085;-57
2021/06/18 10:09:07;;;;;;;5.40;2.37;;;;;;;27.78;44.90;100924.77;1695053;82;21613;-58
2021/06/18 10:11:34;;;;;;;5.90;2.30;;;;;;;27.84;45.22;100930.33;1745168;81;21078;-57
2021/06/18 10:14:01;;;;;;;5.55;1.92;;;;;;;27.94;45.87;100930.16;1742582;81;22385;-56
2021/06/18 10:16:27;;;;;;;4.65;2.10;;;;;;;28.06;45.73;100932.95;1719343;81;21557;-57
2021/06/18 10:19:00;;;;;;;4.78;2.10;;;;;;;28.19;45.19;100927.89;1718915;82;21023;-58
2021/06/18 10:21:32;;;;;;;5.25;2.00;;;;;;;28.30;44.77;100927.67;1694581;82;21121;-58
2021/06/18 10:24:02;;;;;;;5.55;2.20;;;;;;;28.34;43.67;100931.55;1688974;83;21533;-58
2021/06/18 10:26:30;;;;;;;5.25;2.35;;;;;;;28.35;44.49;100928.63;1719374;82;21504;-58
2021/06/18 10:29:00;;;;;;;4.00;1.80;;;;;;;28.48;44.26;100916.81;1718575;83;21121;-58
2021/06/18 10:31:30;;;;;;;4.22;2.17;;;;;;;28.60;43.69;100918.24;1717248;81;21067;-57
2021/06/18 10:34:18;;;;;;;3.60;1.87;;;;;;;28.69;44.29;100920.91;1716684;81;21115;-57
2021/06/18 10:36:44;;;;;;;6.40;2.55;;;;;;;28.75;43.67;100925.95;1719936;82;21108;-56
2021/06/18 10:39:23;;;;;;;4.97;1.57;;;;;;;28.72;44.15;100927.76;1720913;81;21157;-57
2021/06/18 10:41:53;;;;;;;3.92;1.98;;;;;;;28.68;44.23;100930.10;1746200;80;21366;-55
2021/06/18 10:44:44;;;;;;;5.92;2.02;;;;;;;28.65;43.97;100921.63;1745331;80;21057;-57
2021/06/18 10:47:33;;;;;;;4.62;2.37;;;;;;;28.63;43.14;100927.27;1715115;81;21104;-56
2021/06/18 10:50:00;;;;;;;4.85;1.92;;;;;;;28.62;43.69;100932.91;1716138;83;21584;-57
2021/06/18 10:52:38;;;;;;;4.97;1.95;;;;;;;28.67;44.67;100917.61;1721095;81;21079;-57
2021/06/18 10:55:05;;;;;;;6.17;2.22;;;;;;;28.81;44.34;100916.88;1722311;82;21127;-56
2021/06/18 10:57:32;;;;;;;4.17;2.12;;;;;;;28.99;43.83;100911.93;1746171;80;21351;-57
2021/06/18 11:00:14;;;;;;;5.35;2.30;;;;;;;29.13;43.48;100904.94;1721659;82;21097;-57
2021/06/18 11:02:40;;;;;;;5.97;2.40;;;;;;;29.23;42.93;100905.22;1722819;81;21035;-57
2021/06/18 11:05:19;;;;;;;4.05;2.40;;;;;;;29.32;42.94;100901.63;1744599;80;21165;-57
2021/06/18 11:07:46;;;;;;;9.83;2.40;;;;;;;29.39;42.08;100896.39;1756783;79;21112;-57
2021/06/18 11:10:29;;;;;;;5.12;2.37;;;;;;;29.36;42.20;100893.34;1784047;78;21081;-56
2021/06/18 11:13:04;;;;;;;7.20;2.30;;;;;;;29.31;42.71;100901.34;1779116;78;21419;-57
2021/06/18 11:15:39;;;;;;;5.40;2.52;;;;;;;29.27;42.53;100898.28;1779925;79;21053;-57
2021/06/18 11:18:18;;;;;;;4.55;2.47;;;;;;;29.25;42.73;100901.73;1784736;78;21065;-56
2021/06/18 11:20:49;;;;;;;5.28;2.40;;;;;;;29.20;43.00;100898.40;1734298;79;22042;-57
2021/06/18 11:23:26;;;;;;;4.83;2.35;;;;;;;29.12;42.77;100898.71;1778488;78;21596;-56
2021/06/18 11:26:05;;;;;;;5.20;2.45;;;;;;;29.06;43.32;100892.86;1777461;79;21052;-56
2021/06/18 11:28:35;;;;;;;4.95;2.42;;;;;;;29.06;43.23;100892.32;1773285;79;21171;-57
2021/06/18 11:31:21;;;;;;;9.48;2.20;;;;;;;29.07;42.52;100888.56;1777658;78;21468;-56
2021/06/18 11:33:50;;;;;;;;;;;;;;;29.09;42.97;100885.63;1781323;78;21096;-57
2021/06/18 11:36:26;;;;;;;10.50;2.55;;;;;;;29.21;43.85;100885.67;1743244;78;20240;-57
2021/06/18 11:39:10;;;;;;;6.65;2.55;;;;;;;29.26;43.18;100885.25;1776551;78;21486;-57
2021/06/18 11:41:40;;;;;;;5.53;2.10;;;;;;;29.34;42.54;100885.44;1749137;80;22750;-57
2021/06/18 11:44:08;;;;;;;5.55;2.98;;;;;;;29.38;42.76;100883.08;1777047;79;21559;-56
2021/06/18 11:46:36;;;;;;;4.62;2.72;;;;;;;29.41;43.00;100884.78;1773275;79;21112;-56
2021/06/18 11:49:18;;;;;;;5.70;2.42;;;;;;;29.39;42.57;100887.45;1775554;79;20970;-56
2021/06/18 11:51:45;;;;;;;7.42;2.30;;;;;;;29.36;42.51;100891.98;1775485;79;21112;-57